Blakely Island, WA (98222)

7:24 AM PDT on April 21, 2015 (GMT -0700)
Blakely island 49 | | Change Station
CLOSE
Current Station
Personal Weather Station
Location: Washington, WA
Elevation: -3 ft
Nearby Weather Stations

Elev -3 ft 48.58 °N, 122.82 °W | Updated 10 seconds ago

Partly Cloudy
Partly Cloudy
49.3 °F
Feels Like 49 °F
N
0.0
Wind Variable Wind from ESE
Gusts 0.0 mph

Today
High -- | Low -- °F
--% Chance of Precip.
Yesterday
High -- | Low -- °F
Precip. -- in
6:09 AM 8:11 PM
Waxing Crescent, 10% visible
Pressure 29.88 in
Visibility 10.0 miles
Clouds Clear
Windchill 49 °F
Dew Point 47 °F
Humidity 93%
Rainfall 0.00 in
Snow Depth Not available.
UV 0 out of 12
Pollen 9.60 out of 12
Air Quality Not available.
Flu Activity Regional
METAR KFHR 211353Z AUTO 00000KT 10SM CLR 08/07 A2987 RMK AO2 SLP116 T00780072

More Conditions Fewer Conditions

Pressure 29.88 in
Visibility 10.0 miles
Clouds Clear
Windchill 49 °F
Dew Point 47 °F
Humidity 93%
Rainfall 0.00 in
Snow Depth Not available.
UV 0 out of 12
Pollen 9.60 out of 12
Air Quality Not available.
Flu Activity Regional
METAR KFHR 211353Z AUTO 00000KT 10SM CLR 08/07 A2987 RMK AO2 SLP116 T00780072

More Conditions Fewer Conditions

10-Day Weather Forecast

Almanac

Astronomy

Apr. 21, 2015 Rise Set
Actual Time
Civil Twilight
Nautical Twilight
Astronomical Twilight
Moon
Length of Visible Light
Length of Day
Tomorrow will be .
, % of the Moon is Illuminated

Today's Extremes

State Highs State Lows

Community

WunderPhotos

Upload Photos

1,815,402 photos uploaded!

WunderBlogs® & News

Nearby

Air Quality

  Air Quality AQ Index Pollutant
Not available.

Snow Depth

Station Depth Elevation

Earthquake Activity

City Distance Mag. Time & Date
Minimum magnitude displayed is 2.5.

Coastal Water Temperatures

Place Temperature

Stations

Nearby Weather Stations

Station Location Temp. Windchill Dew Point Humidity Wind Precip. Elev Updated Type